createdAt,value
2019-01-20T00:00:17.884Z,18.75
2019-01-20T00:02:47.281Z,17.82
2019-01-20T00:05:16.675Z,15.88
2019-01-20T00:07:46.090Z,17.60
2019-01-20T00:10:15.803Z,19.10
2019-01-20T00:12:45.009Z,20.08
2019-01-20T00:15:21.674Z,19.12
2019-01-20T00:17:50.880Z,19.30
2019-01-20T00:20:20.059Z,18.62
2019-01-20T00:22:49.545Z,17.77
2019-01-20T00:25:19.461Z,23.02
2019-01-20T00:27:48.895Z,22.45
2019-01-20T00:30:21.370Z,21.37
2019-01-20T00:32:50.877Z,21.70
2019-01-20T00:35:20.296Z,25.10
2019-01-20T00:37:49.493Z,19.95
2019-01-20T00:40:19.022Z,24.37
2019-01-20T00:42:48.499Z,21.55
2019-01-20T00:45:18.419Z,25.05
2019-01-20T00:47:47.724Z,24.77
2019-01-20T00:50:17.424Z,22.80
2019-01-20T00:52:46.942Z,17.60
2019-01-20T00:55:17.426Z,19.92
2019-01-20T00:57:47.275Z,20.72
2019-01-20T01:00:26.518Z,20.00
2019-01-20T01:02:55.718Z,20.02
2019-01-20T01:05:25.534Z,20.02
2019-01-20T01:07:55.026Z,19.67
2019-01-20T01:10:24.442Z,22.80
2019-01-20T01:12:54.563Z,22.07
2019-01-20T01:15:23.761Z,25.20
2019-01-20T01:17:53.263Z,23.73
2019-01-20T01:20:22.468Z,22.85
2019-01-20T01:22:51.666Z,24.65
2019-01-20T01:25:21.061Z,25.25
2019-01-20T01:27:50.272Z,21.48
2019-01-20T01:30:24.092Z,25.70
2019-01-20T01:32:53.990Z,22.90
2019-01-20T01:35:23.442Z,23.62
2019-01-20T01:37:52.696Z,28.70
2019-01-20T01:40:22.298Z,25.68
2019-01-20T01:42:51.915Z,21.57
2019-01-20T01:45:21.607Z,26.80
2019-01-20T01:47:50.825Z,23.35
2019-01-20T01:50:20.325Z,22.50
2019-01-20T01:52:49.930Z,24.15
2019-01-20T01:55:19.344Z,24.27
2019-01-20T01:57:48.736Z,21.68
2019-01-20T02:00:20.516Z,24.75
2019-01-20T02:02:50.006Z,24.77
2019-01-20T02:05:19.419Z,24.77
2019-01-20T02:07:48.718Z,26.40
2019-01-20T02:10:19.678Z,27.65
2019-01-20T02:12:49.369Z,25.05
2019-01-20T02:15:20.452Z,23.90
2019-01-20T02:17:50.019Z,21.65
2019-01-20T02:20:24.439Z,24.43
2019-01-20T02:22:53.847Z,22.37
2019-01-20T02:25:23.353Z,25.15
2019-01-20T02:27:54.613Z,22.62
2019-01-20T02:30:28.596Z,28.52
2019-01-20T02:32:58.015Z,27.32
2019-01-20T02:35:27.445Z,24.00
2019-01-20T02:37:56.922Z,27.58
2019-01-20T02:40:26.226Z,23.15
2019-01-20T02:42:55.529Z,24.77
2019-01-20T02:45:24.923Z,25.70
2019-01-20T02:47:54.131Z,26.73
2019-01-20T02:50:23.930Z,28.05
2019-01-20T02:52:53.144Z,23.95
2019-01-20T02:55:22.342Z,24.75
2019-01-20T02:57:51.738Z,26.37
2019-01-20T03:00:42.029Z,26.95
2019-01-20T03:03:11.741Z,26.25
2019-01-20T03:05:41.257Z,28.02
2019-01-20T03:08:10.563Z,28.00
2019-01-20T03:10:40.055Z,23.27
2019-01-20T03:13:09.471Z,25.20
2019-01-20T03:15:38.670Z,27.30
2019-01-20T03:18:07.868Z,25.45
2019-01-20T03:20:37.069Z,26.40
2019-01-20T03:23:06.267Z,26.55
2019-01-20T03:25:35.408Z,26.57
2019-01-20T03:28:04.864Z,26.33
2019-01-20T03:30:34.370Z,24.45
2019-01-20T03:33:03.593Z,27.82
2019-01-20T03:35:32.877Z,28.83
2019-01-20T03:38:02.287Z,25.15
2019-01-20T03:40:31.480Z,23.83
2019-01-20T03:43:00.874Z,23.22
2019-01-20T03:45:30.084Z,28.57
2019-01-20T03:47:59.387Z,26.27
2019-01-20T03:50:28.900Z,23.95
2019-01-20T03:52:58.446Z,28.35
2019-01-20T03:55:27.700Z,26.90
2019-01-20T03:57:57.000Z,26.95
2019-01-20T04:00:26.596Z,24.45
2019-01-20T04:02:57.447Z,26.45
2019-01-20T04:05:26.947Z,25.05
2019-01-20T04:07:56.564Z,25.77
2019-01-20T04:10:25.760Z,23.20
2019-01-20T04:12:55.257Z,23.85
2019-01-20T04:15:24.522Z,25.52
2019-01-20T04:17:53.964Z,24.75
2019-01-20T04:20:23.673Z,22.25
2019-01-20T04:22:52.889Z,28.87
2019-01-20T04:25:22.186Z,20.95
2019-01-20T04:27:51.580Z,23.57
2019-01-20T04:30:21.777Z,28.98
2019-01-20T04:32:51.208Z,25.37
2019-01-20T04:35:20.823Z,25.65
2019-01-20T04:37:50.126Z,23.62
2019-01-20T04:40:22.137Z,24.72
2019-01-20T04:42:51.597Z,24.90
2019-01-20T04:45:20.898Z,25.97
2019-01-20T04:47:50.109Z,23.77
2019-01-20T04:50:24.167Z,28.32
2019-01-20T04:52:53.412Z,28.17
2019-01-20T04:55:22.710Z,27.40
2019-01-20T04:57:53.856Z,23.18
2019-01-20T05:00:25.298Z,25.05
2019-01-20T05:02:54.808Z,23.90
2019-01-20T05:05:24.546Z,25.68
2019-01-20T05:07:54.327Z,24.50
2019-01-20T05:10:23.846Z,25.37
2019-01-20T05:12:53.240Z,29.48
2019-01-20T05:15:24.323Z,21.97
2019-01-20T05:17:53.723Z,22.32
2019-01-20T05:20:23.197Z,25.50
2019-01-20T05:22:52.593Z,28.65
2019-01-20T05:25:21.908Z,24.60
2019-01-20T05:27:51.415Z,24.98
2019-01-20T05:30:23.844Z,24.82
2019-01-20T05:32:53.278Z,24.77
2019-01-20T05:35:22.792Z,23.47
2019-01-20T05:37:52.096Z,25.82
2019-01-20T05:40:23.776Z,25.30
2019-01-20T05:42:53.160Z,25.08
2019-01-20T05:45:24.198Z,27.90
2019-01-20T05:47:53.706Z,20.92
2019-01-20T05:50:22.921Z,24.87
2019-01-20T05:52:52.213Z,27.52
2019-01-20T05:55:21.445Z,23.75
2019-01-20T05:57:50.609Z,26.37
2019-01-20T06:00:26.620Z,26.82
2019-01-20T06:02:55.870Z,24.77
2019-01-20T06:05:25.371Z,29.15
2019-01-20T06:07:54.675Z,25.68
2019-01-20T06:10:24.069Z,27.58
2019-01-20T06:12:54.274Z,26.87
2019-01-20T06:15:24.828Z,26.70
2019-01-20T06:17:54.038Z,24.02
2019-01-20T06:20:23.335Z,26.97
2019-01-20T06:22:52.533Z,25.05
2019-01-20T06:25:21.932Z,26.45
2019-01-20T06:27:51.136Z,26.77
2019-01-20T06:30:29.852Z,28.60
2019-01-20T06:32:59.166Z,25.20
2019-01-20T06:35:28.654Z,27.13
2019-01-20T06:37:58.058Z,27.70
2019-01-20T06:40:27.351Z,23.85
2019-01-20T06:43:01.830Z,24.32
2019-01-20T06:45:27.676Z,27.75
2019-01-20T06:47:57.119Z,26.68
2019-01-20T06:50:26.422Z,29.37
2019-01-20T06:52:55.545Z,25.40
2019-01-20T06:55:25.012Z,23.98
2019-01-20T06:57:54.328Z,29.20
2019-01-20T07:00:24.038Z,29.07
2019-01-20T07:02:53.435Z,24.87
2019-01-20T07:05:22.943Z,26.05
2019-01-20T07:07:53.478Z,27.85
2019-01-20T07:10:23.077Z,25.82
2019-01-20T07:12:52.286Z,26.50
2019-01-20T07:15:23.382Z,27.42
2019-01-20T07:17:52.554Z,27.73
2019-01-20T07:20:22.071Z,31.55
2019-01-20T07:22:51.635Z,30.00
2019-01-20T07:25:21.045Z,25.97
2019-01-20T07:27:50.250Z,29.85
2019-01-20T07:30:21.773Z,28.73
2019-01-20T07:32:51.225Z,27.95
2019-01-20T07:35:20.392Z,35.50
2019-01-20T07:37:49.813Z,29.63
2019-01-20T07:40:23.156Z,30.35
2019-01-20T07:42:52.514Z,30.50
2019-01-20T07:45:21.910Z,29.15
2019-01-20T07:47:51.314Z,27.55
2019-01-20T07:50:23.920Z,31.87
2019-01-20T07:52:53.147Z,29.20
2019-01-20T07:55:22.288Z,31.12
2019-01-20T07:57:51.987Z,33.85
2019-01-20T08:00:23.691Z,29.63
2019-01-20T08:02:52.961Z,28.80
2019-01-20T08:05:22.456Z,30.52
2019-01-20T08:07:51.766Z,31.30
2019-01-20T08:10:26.849Z,31.00
2019-01-20T08:12:56.606Z,28.92
2019-01-20T08:15:25.918Z,30.52
2019-01-20T08:17:55.427Z,31.93
2019-01-20T08:20:25.451Z,29.42
2019-01-20T08:22:54.846Z,29.60
2019-01-20T08:25:24.752Z,29.30
2019-01-20T08:27:53.962Z,31.97
2019-01-20T08:30:25.948Z,27.50
2019-01-20T08:32:55.632Z,29.20
2019-01-20T08:35:25.541Z,29.40
2019-01-20T08:37:54.946Z,31.15
2019-01-20T08:40:28.855Z,31.17
2019-01-20T08:42:58.167Z,30.45
2019-01-20T08:45:53.472Z,33.90
2019-01-20T08:48:25.540Z,29.07
2019-01-20T08:50:55.729Z,29.35
2019-01-20T08:53:25.173Z,28.25
2019-01-20T08:55:54.782Z,31.95
2019-01-20T08:58:24.277Z,32.13
2019-01-20T09:00:53.485Z,30.45
2019-01-20T09:03:22.790Z,31.97
2019-01-20T09:05:52.189Z,34.45
2019-01-20T09:08:21.790Z,30.95
2019-01-20T09:10:51.102Z,31.95
2019-01-20T09:13:20.705Z,30.05
2019-01-20T09:15:50.097Z,36.58
2019-01-20T09:18:19.239Z,31.68
2019-01-20T09:20:48.723Z,29.42
2019-01-20T09:23:18.217Z,36.88
2019-01-20T09:25:47.379Z,34.20
2019-01-20T09:28:16.729Z,29.80
2019-01-20T09:30:46.130Z,32.03
2019-01-20T09:33:15.431Z,33.50
2019-01-20T09:35:44.632Z,30.90
2019-01-20T09:38:14.851Z,35.15
2019-01-20T09:40:44.247Z,41.55
2019-01-20T09:43:13.865Z,33.20
2019-01-20T09:45:43.830Z,33.30
2019-01-20T09:48:13.690Z,36.30
2019-01-20T09:50:42.969Z,36.20
2019-01-20T09:53:12.392Z,31.33
2019-01-20T09:55:43.033Z,32.85
2019-01-20T09:58:12.336Z,34.50
2019-01-20T10:00:41.529Z,28.50
2019-01-20T10:03:16.189Z,31.05
2019-01-20T10:05:41.880Z,28.02
2019-01-20T10:08:11.376Z,32.85
2019-01-20T10:10:40.790Z,26.65
2019-01-20T10:13:09.996Z,27.15
2019-01-20T10:15:39.187Z,30.30
2019-01-20T10:18:08.590Z,28.73
2019-01-20T10:20:40.464Z,28.70
2019-01-20T10:23:09.686Z,28.17
2019-01-20T10:25:38.818Z,27.15
2019-01-20T10:28:08.402Z,27.00
2019-01-20T10:30:38.066Z,29.18
2019-01-20T10:33:07.433Z,28.38
2019-01-20T10:35:41.282Z,26.73
2019-01-20T10:38:15.922Z,26.65
2019-01-20T10:40:45.138Z,28.87
2019-01-20T10:43:14.509Z,26.60
2019-01-20T10:45:43.661Z,24.12
2019-01-20T10:48:12.791Z,28.92
2019-01-20T10:50:42.321Z,26.15
2019-01-20T10:53:11.444Z,28.90
2019-01-20T10:55:40.581Z,24.85
2019-01-20T10:58:09.930Z,25.80
2019-01-20T11:00:40.573Z,25.48
2019-01-20T11:03:09.949Z,29.05
2019-01-20T11:05:39.177Z,23.85
2019-01-20T11:08:08.301Z,24.60
2019-01-20T11:10:37.414Z,28.70
2019-01-20T11:13:07.178Z,25.15
2019-01-20T11:15:36.652Z,26.55
2019-01-20T11:18:05.741Z,24.43
2019-01-20T11:20:34.873Z,25.15
2019-01-20T11:23:03.960Z,29.07
2019-01-20T11:25:37.530Z,22.32
2019-01-20T11:28:07.258Z,21.62
2019-01-20T11:30:37.292Z,23.85
2019-01-20T11:33:06.377Z,19.92
2019-01-20T11:35:35.777Z,21.50
2019-01-20T11:38:05.234Z,22.82
2019-01-20T11:40:35.080Z,23.27
2019-01-20T11:43:04.265Z,21.12
2019-01-20T11:45:33.626Z,21.77
2019-01-20T11:48:03.066Z,23.47
2019-01-20T11:50:32.301Z,22.13
2019-01-20T11:53:01.392Z,22.87
2019-01-20T11:55:30.517Z,23.35
2019-01-20T11:57:59.880Z,24.15
2019-01-20T12:00:35.177Z,27.02
2019-01-20T12:03:04.926Z,21.93
2019-01-20T12:05:35.031Z,21.95
2019-01-20T12:08:04.460Z,20.43
2019-01-20T12:10:33.818Z,23.77
2019-01-20T12:13:10.980Z,23.62
2019-01-20T12:15:40.369Z,22.67
2019-01-20T12:18:09.711Z,22.80
2019-01-20T12:20:38.817Z,22.40
2019-01-20T12:23:07.938Z,20.57
2019-01-20T12:25:37.033Z,22.40
2019-01-20T12:28:06.814Z,24.45
2019-01-20T12:30:39.270Z,20.85
2019-01-20T12:33:08.877Z,22.35
2019-01-20T12:35:37.959Z,23.15
2019-01-20T12:38:07.203Z,22.10
2019-01-20T12:40:43.182Z,20.72
2019-01-20T12:43:13.095Z,24.95
2019-01-20T12:45:42.203Z,23.75
2019-01-20T12:48:11.308Z,22.27
2019-01-20T12:50:40.746Z,23.87
2019-01-20T12:53:09.887Z,24.07
2019-01-20T12:55:38.998Z,24.20
2019-01-20T12:58:09.010Z,22.50
2019-01-20T13:00:39.239Z,22.98
2019-01-20T13:03:08.593Z,21.60
2019-01-20T13:05:37.701Z,21.33
2019-01-20T13:08:06.807Z,23.62
2019-01-20T13:10:35.894Z,21.15
2019-01-20T13:13:05.393Z,23.40
2019-01-20T13:15:35.104Z,23.90
2019-01-20T13:18:04.307Z,22.67
2019-01-20T13:20:33.643Z,22.22
2019-01-20T13:23:02.743Z,21.55
2019-01-20T13:25:31.844Z,22.07
2019-01-20T13:28:01.386Z,22.80
2019-01-20T13:30:30.542Z,20.88
2019-01-20T13:32:59.974Z,22.32
2019-01-20T13:35:29.357Z,23.57
2019-01-20T13:38:04.041Z,21.25
2019-01-20T13:40:40.800Z,21.52
2019-01-20T13:43:10.248Z,19.25
2019-01-20T13:45:39.358Z,21.60
2019-01-20T13:48:08.476Z,20.68
2019-01-20T13:50:37.869Z,21.37
2019-01-20T13:53:07.001Z,21.90
2019-01-20T13:55:36.107Z,21.87
2019-01-20T13:58:05.246Z,20.57
2019-01-20T14:00:34.583Z,23.27
2019-01-20T14:03:03.721Z,21.05
2019-01-20T14:05:32.809Z,24.57
2019-01-20T14:08:01.925Z,26.27
2019-01-20T14:10:31.026Z,20.77
2019-01-20T14:13:00.374Z,23.47
2019-01-20T14:15:29.447Z,23.55
2019-01-20T14:17:58.832Z,23.55
2019-01-20T14:20:27.941Z,20.70
2019-01-20T14:22:57.045Z,24.35
2019-01-20T14:25:31.170Z,22.80
2019-01-20T14:28:00.549Z,23.25
2019-01-20T14:30:31.837Z,21.25
2019-01-20T14:33:01.222Z,24.98
2019-01-20T14:35:30.331Z,25.32
2019-01-20T14:37:59.432Z,22.52
2019-01-20T14:40:28.528Z,21.35
2019-01-20T14:42:57.681Z,26.62
2019-01-20T14:45:27.013Z,22.32
2019-01-20T14:47:56.122Z,22.00
2019-01-20T14:50:26.850Z,22.75
2019-01-20T14:52:56.403Z,21.10
2019-01-20T14:55:25.901Z,20.20
2019-01-20T14:57:55.257Z,21.68
2019-01-20T15:00:32.973Z,20.25
2019-01-20T15:03:02.436Z,24.57
2019-01-20T15:05:31.956Z,22.48
2019-01-20T15:08:01.197Z,24.80
2019-01-20T15:10:30.358Z,28.42
2019-01-20T15:12:59.440Z,23.77
2019-01-20T15:15:37.274Z,22.85
2019-01-20T15:18:06.998Z,23.55
2019-01-20T15:20:36.148Z,23.62
2019-01-20T15:23:06.351Z,25.05
2019-01-20T15:25:35.497Z,24.70
2019-01-20T15:28:05.383Z,28.52
2019-01-20T15:30:35.247Z,25.88
2019-01-20T15:33:06.215Z,28.90
2019-01-20T15:35:35.398Z,28.00
2019-01-20T15:38:04.572Z,25.48
2019-01-20T15:40:33.727Z,25.17
2019-01-20T15:43:02.841Z,27.77
2019-01-20T15:45:31.928Z,24.52
2019-01-20T15:48:01.306Z,22.80
2019-01-20T15:50:32.348Z,26.62
2019-01-20T15:53:02.095Z,26.10
2019-01-20T15:55:31.418Z,24.65
2019-01-20T15:58:00.534Z,27.67
2019-01-20T16:00:31.505Z,23.87
2019-01-20T16:03:01.343Z,25.15
2019-01-20T16:05:30.957Z,25.12
2019-01-20T16:08:00.042Z,26.65
2019-01-20T16:10:29.483Z,29.25
2019-01-20T16:12:59.148Z,27.02
2019-01-20T16:15:33.480Z,27.90
2019-01-20T16:18:02.572Z,28.25
2019-01-20T16:20:32.277Z,27.05
2019-01-20T16:23:01.526Z,26.55
2019-01-20T16:25:34.661Z,27.27
2019-01-20T16:28:04.371Z,30.10
2019-01-20T16:30:36.670Z,29.57
2019-01-20T16:33:05.924Z,27.45
2019-01-20T16:35:35.367Z,31.65
2019-01-20T16:38:05.021Z,29.65
2019-01-20T16:40:34.189Z,48.63
2019-01-20T16:43:03.302Z,47.67
2019-01-20T16:45:42.180Z,34.38
2019-01-20T16:48:06.775Z,29.50
2019-01-20T16:50:36.277Z,29.15
2019-01-20T16:53:06.850Z,29.00
2019-01-20T16:55:36.029Z,31.50
2019-01-20T16:58:05.619Z,29.32
2019-01-20T17:00:39.265Z,29.90
2019-01-20T17:03:08.634Z,27.77
2019-01-20T17:05:37.781Z,33.20
2019-01-20T17:08:06.970Z,30.27
2019-01-20T17:10:38.725Z,31.33
2019-01-20T17:13:08.557Z,33.55
2019-01-20T17:15:40.048Z,33.02
2019-01-20T17:18:11.535Z,30.88
2019-01-20T17:20:40.924Z,32.10
2019-01-20T17:23:10.098Z,34.35
2019-01-20T17:25:39.202Z,35.98
2019-01-20T17:28:08.301Z,30.85
2019-01-20T17:30:38.149Z,36.80
2019-01-20T17:33:10.207Z,36.88
2019-01-20T17:35:39.567Z,37.83
2019-01-20T17:38:08.976Z,37.50
2019-01-20T17:40:38.091Z,34.70
2019-01-20T17:43:07.335Z,33.75
2019-01-20T17:45:48.344Z,33.58
2019-01-20T17:48:11.818Z,32.70
2019-01-20T17:50:42.006Z,37.73
2019-01-20T17:53:11.601Z,35.13
2019-01-20T17:55:40.721Z,35.28
2019-01-20T17:58:10.077Z,40.83
2019-01-20T18:00:43.525Z,34.78
2019-01-20T18:03:12.692Z,35.33
2019-01-20T18:05:42.135Z,37.35
2019-01-20T18:08:11.503Z,33.42
2019-01-20T18:10:40.634Z,35.08
2019-01-20T18:13:09.720Z,34.35
2019-01-20T18:15:38.964Z,38.23
2019-01-20T18:18:08.189Z,37.08
2019-01-20T18:20:37.313Z,37.13
2019-01-20T18:23:06.424Z,36.53
2019-01-20T18:25:35.551Z,36.93
2019-01-20T18:28:05.449Z,39.95
2019-01-20T18:30:34.828Z,37.67
2019-01-20T18:33:04.200Z,40.03
2019-01-20T18:35:33.285Z,36.13
2019-01-20T18:38:02.639Z,43.02
2019-01-20T18:40:32.017Z,47.50
2019-01-20T18:43:01.104Z,43.87
2019-01-20T18:45:32.537Z,42.38
2019-01-20T18:48:01.637Z,36.70
2019-01-20T18:50:36.860Z,39.53
2019-01-20T18:53:06.428Z,40.95
2019-01-20T18:55:35.888Z,44.67
2019-01-20T18:58:05.717Z,40.48
2019-01-20T19:00:39.330Z,38.75
2019-01-20T19:03:08.457Z,46.77
2019-01-20T19:05:37.545Z,45.58
2019-01-20T19:08:06.996Z,43.52
2019-01-20T19:10:36.084Z,47.62
2019-01-20T19:13:05.250Z,40.90
2019-01-20T19:15:34.389Z,45.12
2019-01-20T19:18:03.664Z,45.43
2019-01-20T19:20:33.007Z,43.35
2019-01-20T19:23:02.193Z,46.08
2019-01-20T19:25:31.886Z,44.40
2019-01-20T19:28:00.972Z,43.80
2019-01-20T19:30:32.238Z,39.83
2019-01-20T19:33:03.020Z,42.73
2019-01-20T19:35:32.134Z,42.85
2019-01-20T19:38:01.508Z,44.60
2019-01-20T19:40:30.608Z,41.88
2019-01-20T19:43:00.018Z,46.42
2019-01-20T19:45:29.109Z,42.55
2019-01-20T19:47:59.276Z,46.15
2019-01-20T19:50:28.398Z,40.63
2019-01-20T19:52:57.568Z,44.50
2019-01-20T19:55:28.836Z,40.85
2019-01-20T19:57:58.294Z,41.45
2019-01-20T20:00:31.623Z,44.08
2019-01-20T20:03:00.790Z,42.43
2019-01-20T20:05:30.179Z,46.65
2019-01-20T20:07:59.292Z,44.67
2019-01-20T20:10:28.920Z,46.45
2019-01-20T20:12:59.089Z,45.03
2019-01-20T20:15:28.541Z,47.95
2019-01-20T20:17:57.668Z,44.15
2019-01-20T20:20:26.763Z,44.33
2019-01-20T20:22:55.963Z,53.23
2019-01-20T20:25:26.594Z,50.95
2019-01-20T20:27:55.813Z,53.13
2019-01-20T20:30:31.694Z,53.83
2019-01-20T20:33:01.056Z,54.55
2019-01-20T20:35:30.146Z,52.48
2019-01-20T20:37:59.520Z,56.08
2019-01-20T20:40:28.608Z,55.45
2019-01-20T20:42:58.208Z,52.73
2019-01-20T20:45:28.301Z,51.13
2019-01-20T20:47:57.459Z,49.27
2019-01-20T20:50:26.832Z,51.55
2019-01-20T20:52:56.060Z,51.18
2019-01-20T20:55:25.416Z,49.88
2019-01-20T20:57:54.542Z,47.15
2019-01-20T21:00:28.753Z,46.60
2019-01-20T21:02:59.559Z,44.95
2019-01-20T21:05:28.649Z,49.55
2019-01-20T21:07:58.002Z,44.88
2019-01-20T21:10:27.378Z,48.35
2019-01-20T21:12:56.498Z,44.77
2019-01-20T21:15:25.625Z,47.27
2019-01-20T21:17:54.754Z,44.85
2019-01-20T21:20:24.013Z,47.10
2019-01-20T21:22:53.371Z,48.70
2019-01-20T21:25:22.786Z,46.80
2019-01-20T21:27:54.840Z,48.17
2019-01-20T21:30:29.515Z,47.43
2019-01-20T21:32:58.601Z,46.77
2019-01-20T21:35:28.027Z,47.48
2019-01-20T21:37:57.182Z,49.05
2019-01-20T21:40:26.363Z,54.08
2019-01-20T21:42:55.485Z,51.15
2019-01-20T21:45:24.882Z,60.98
2019-01-20T21:47:54.625Z,59.93
2019-01-20T21:50:26.197Z,47.67
2019-01-20T21:52:55.294Z,49.18
2019-01-20T21:55:24.668Z,52.30
2019-01-20T21:57:53.865Z,51.25
2019-01-20T22:00:25.506Z,46.37
2019-01-20T22:02:54.859Z,44.67
2019-01-20T22:05:24.230Z,49.93
2019-01-20T22:07:53.346Z,45.23
2019-01-20T22:10:42.085Z,46.28
2019-01-20T22:13:11.442Z,40.85
2019-01-20T22:15:41.100Z,43.05
2019-01-20T22:18:29.707Z,45.60
2019-01-20T22:20:59.109Z,48.20
2019-01-20T22:23:28.308Z,48.35
2019-01-20T22:25:57.803Z,45.43
2019-01-20T22:28:27.248Z,51.37
2019-01-20T22:30:56.623Z,50.90
2019-01-20T22:33:26.424Z,46.55
2019-01-20T22:35:55.840Z,51.10
2019-01-20T22:38:25.440Z,46.15
2019-01-20T22:40:54.750Z,48.08
2019-01-20T22:43:24.052Z,55.48
2019-01-20T22:45:53.549Z,51.33
2019-01-20T22:48:22.870Z,52.15
2019-01-20T22:50:51.994Z,51.28
2019-01-20T22:53:21.153Z,52.20
2019-01-20T22:55:50.354Z,45.50
2019-01-20T22:58:19.770Z,50.75
2019-01-20T23:00:52.856Z,47.10
2019-01-20T23:03:22.492Z,51.13
2019-01-20T23:05:52.314Z,48.40
2019-01-20T23:08:21.752Z,50.10
2019-01-20T23:10:51.091Z,53.58
2019-01-20T23:13:20.438Z,48.15
2019-01-20T23:15:49.740Z,46.28
2019-01-20T23:18:19.594Z,49.08
2019-01-20T23:20:49.128Z,49.15
2019-01-20T23:23:18.634Z,47.27
2019-01-20T23:25:48.134Z,48.35
2019-01-20T23:28:17.731Z,47.60
2019-01-20T23:30:47.219Z,43.87
2019-01-20T23:33:16.636Z,46.83
2019-01-20T23:35:46.040Z,47.98
2019-01-20T23:38:15.539Z,51.55
2019-01-20T23:40:45.051Z,53.87
2019-01-20T23:43:14.252Z,48.30
2019-01-20T23:45:44.058Z,43.87
2019-01-20T23:48:13.563Z,49.63
2019-01-20T23:50:42.872Z,45.10
2019-01-20T23:53:12.077Z,46.90
2019-01-20T23:55:41.718Z,46.37
2019-01-20T23:58:11.229Z,47.43
